sensor_id;sensor_type;location;lat;lon;timestamp;P1;durP1;ratioP1;P2;durP2;ratioP2
15110;SDS011;7656;51.954;7.998;2022-11-20T00:02:44;11.13;;;6.87;;
15110;SDS011;7656;51.954;7.998;2022-11-20T00:07:05;10.57;;;6.63;;
15110;SDS011;7656;51.954;7.998;2022-11-20T00:11:27;8.33;;;6.57;;
15110;SDS011;7656;51.954;7.998;2022-11-20T00:15:56;10.10;;;6.00;;
15110;SDS011;7656;51.954;7.998;2022-11-20T00:20:18;7.43;;;5.53;;
15110;SDS011;7656;51.954;7.998;2022-11-20T00:24:39;12.80;;;6.47;;
15110;SDS011;7656;51.954;7.998;2022-11-20T00:29:01;8.47;;;6.10;;
15110;SDS011;7656;51.954;7.998;2022-11-20T00:33:23;12.30;;;6.60;;
15110;SDS011;7656;51.954;7.998;2022-11-20T00:37:45;10.00;;;7.40;;
15110;SDS011;7656;51.954;7.998;2022-11-20T00:42:06;10.00;;;6.17;;
15110;SDS011;7656;51.954;7.998;2022-11-20T00:46:27;10.70;;;7.07;;
15110;SDS011;7656;51.954;7.998;2022-11-20T00:50:49;11.30;;;6.67;;
15110;SDS011;7656;51.954;7.998;2022-11-20T00:55:10;12.20;;;7.50;;
15110;SDS011;7656;51.954;7.998;2022-11-20T00:59:31;9.87;;;6.00;;
15110;SDS011;7656;51.954;7.998;2022-11-20T01:03:53;14.20;;;7.57;;
15110;SDS011;7656;51.954;7.998;2022-11-20T01:08:18;7.57;;;5.70;;
15110;SDS011;7656;51.954;7.998;2022-11-20T01:12:39;12.63;;;6.67;;
15110;SDS011;7656;51.954;7.998;2022-11-20T01:17:00;10.03;;;6.37;;
15110;SDS011;7656;51.954;7.998;2022-11-20T01:21:22;10.87;;;6.63;;
15110;SDS011;7656;51.954;7.998;2022-11-20T01:25:54;11.23;;;7.27;;
15110;SDS011;7656;51.954;7.998;2022-11-20T01:30:15;13.43;;;6.63;;
15110;SDS011;7656;51.954;7.998;2022-11-20T01:34:36;10.17;;;6.13;;
15110;SDS011;7656;51.954;7.998;2022-11-20T01:38:58;8.20;;;6.00;;
15110;SDS011;7656;51.954;7.998;2022-11-20T01:43:23;10.10;;;6.70;;
15110;SDS011;7656;51.954;7.998;2022-11-20T01:47:45;10.27;;;6.47;;
15110;SDS011;7656;51.954;7.998;2022-11-20T01:52:17;9.33;;;6.17;;
15110;SDS011;7656;51.954;7.998;2022-11-20T01:57:05;10.40;;;7.00;;
15110;SDS011;7656;51.954;7.998;2022-11-20T02:01:30;10.83;;;7.30;;
15110;SDS011;7656;51.954;7.998;2022-11-20T02:06:04;11.27;;;7.20;;
15110;SDS011;7656;51.954;7.998;2022-11-20T02:10:46;12.60;;;6.53;;
15110;SDS011;7656;51.954;7.998;2022-11-20T02:15:08;11.60;;;7.70;;
15110;SDS011;7656;51.954;7.998;2022-11-20T02:19:30;14.30;;;8.00;;
15110;SDS011;7656;51.954;7.998;2022-11-20T02:23:55;11.53;;;7.23;;
15110;SDS011;7656;51.954;7.998;2022-11-20T02:28:25;11.03;;;6.57;;
15110;SDS011;7656;51.954;7.998;2022-11-20T02:32:47;11.80;;;7.23;;
15110;SDS011;7656;51.954;7.998;2022-11-20T02:37:08;10.60;;;6.40;;
15110;SDS011;7656;51.954;7.998;2022-11-20T02:41:34;11.17;;;6.50;;
15110;SDS011;7656;51.954;7.998;2022-11-20T02:45:57;9.00;;;6.30;;
15110;SDS011;7656;51.954;7.998;2022-11-20T02:50:18;7.60;;;5.60;;
15110;SDS011;7656;51.954;7.998;2022-11-20T02:54:40;10.80;;;6.63;;
15110;SDS011;7656;51.954;7.998;2022-11-20T02:59:01;9.57;;;6.40;;
15110;SDS011;7656;51.954;7.998;2022-11-20T03:03:22;10.70;;;6.93;;
15110;SDS011;7656;51.954;7.998;2022-11-20T03:07:43;8.47;;;5.50;;
15110;SDS011;7656;51.954;7.998;2022-11-20T03:12:04;9.47;;;6.63;;
15110;SDS011;7656;51.954;7.998;2022-11-20T03:16:26;6.97;;;5.53;;
15110;SDS011;7656;51.954;7.998;2022-11-20T03:20:47;9.73;;;5.80;;
15110;SDS011;7656;51.954;7.998;2022-11-20T03:25:08;9.43;;;5.90;;
15110;SDS011;7656;51.954;7.998;2022-11-20T03:29:29;9.07;;;6.10;;
15110;SDS011;7656;51.954;7.998;2022-11-20T03:33:50;10.67;;;6.27;;
15110;SDS011;7656;51.954;7.998;2022-11-20T03:38:12;10.43;;;5.63;;
15110;SDS011;7656;51.954;7.998;2022-11-20T03:42:33;9.37;;;5.77;;
15110;SDS011;7656;51.954;7.998;2022-11-20T03:47:06;8.97;;;5.87;;
15110;SDS011;7656;51.954;7.998;2022-11-20T03:51:28;10.30;;;6.37;;
15110;SDS011;7656;51.954;7.998;2022-11-20T03:55:51;12.03;;;6.17;;
15110;SDS011;7656;51.954;7.998;2022-11-20T04:00:13;11.97;;;6.77;;
15110;SDS011;7656;51.954;7.998;2022-11-20T04:04:34;13.37;;;7.00;;
15110;SDS011;7656;51.954;7.998;2022-11-20T04:08:56;10.50;;;6.47;;
15110;SDS011;7656;51.954;7.998;2022-11-20T04:13:18;9.27;;;5.97;;
15110;SDS011;7656;51.954;7.998;2022-11-20T04:17:39;10.40;;;5.80;;
15110;SDS011;7656;51.954;7.998;2022-11-20T04:22:00;8.03;;;5.93;;
15110;SDS011;7656;51.954;7.998;2022-11-20T04:26:22;9.07;;;6.23;;
15110;SDS011;7656;51.954;7.998;2022-11-20T04:30:46;7.70;;;5.53;;
15110;SDS011;7656;51.954;7.998;2022-11-20T04:35:07;9.93;;;5.70;;
15110;SDS011;7656;51.954;7.998;2022-11-20T04:39:28;9.47;;;6.03;;
15110;SDS011;7656;51.954;7.998;2022-11-20T04:43:51;9.13;;;6.27;;
15110;SDS011;7656;51.954;7.998;2022-11-20T04:48:19;9.73;;;6.00;;
15110;SDS011;7656;51.954;7.998;2022-11-20T04:52:41;11.13;;;6.20;;
15110;SDS011;7656;51.954;7.998;2022-11-20T04:57:02;10.67;;;5.87;;
15110;SDS011;7656;51.954;7.998;2022-11-20T05:01:23;8.03;;;5.30;;
15110;SDS011;7656;51.954;7.998;2022-11-20T05:05:45;8.13;;;5.47;;
15110;SDS011;7656;51.954;7.998;2022-11-20T05:10:06;9.03;;;5.90;;
15110;SDS011;7656;51.954;7.998;2022-11-20T05:14:27;8.87;;;5.17;;
15110;SDS011;7656;51.954;7.998;2022-11-20T05:18:49;7.00;;;4.90;;
15110;SDS011;7656;51.954;7.998;2022-11-20T05:23:12;9.87;;;5.63;;
15110;SDS011;7656;51.954;7.998;2022-11-20T05:27:33;8.00;;;6.07;;
15110;SDS011;7656;51.954;7.998;2022-11-20T05:31:54;9.23;;;5.23;;
15110;SDS011;7656;51.954;7.998;2022-11-20T05:36:16;9.43;;;6.13;;
15110;SDS011;7656;51.954;7.998;2022-11-20T05:40:37;9.90;;;5.30;;
15110;SDS011;7656;51.954;7.998;2022-11-20T05:44:59;11.17;;;6.17;;
15110;SDS011;7656;51.954;7.998;2022-11-20T05:49:22;7.67;;;5.50;;
15110;SDS011;7656;51.954;7.998;2022-11-20T05:53:44;8.80;;;6.20;;
15110;SDS011;7656;51.954;7.998;2022-11-20T05:58:05;9.43;;;6.50;;
15110;SDS011;7656;51.954;7.998;2022-11-20T06:02:26;12.93;;;7.10;;
15110;SDS011;7656;51.954;7.998;2022-11-20T06:06:47;13.03;;;7.20;;
15110;SDS011;7656;51.954;7.998;2022-11-20T06:11:10;12.60;;;6.80;;
15110;SDS011;7656;51.954;7.998;2022-11-20T06:15:33;9.90;;;6.53;;
15110;SDS011;7656;51.954;7.998;2022-11-20T06:19:54;9.60;;;6.40;;
15110;SDS011;7656;51.954;7.998;2022-11-20T06:24:15;10.40;;;7.23;;
15110;SDS011;7656;51.954;7.998;2022-11-20T06:28:37;9.97;;;6.63;;
15110;SDS011;7656;51.954;7.998;2022-11-20T06:32:59;12.10;;;7.17;;
15110;SDS011;7656;51.954;7.998;2022-11-20T06:37:20;13.47;;;7.60;;
15110;SDS011;7656;51.954;7.998;2022-11-20T06:41:41;10.70;;;6.83;;
15110;SDS011;7656;51.954;7.998;2022-11-20T06:46:02;13.40;;;6.83;;
15110;SDS011;7656;51.954;7.998;2022-11-20T06:50:23;9.03;;;6.47;;
15110;SDS011;7656;51.954;7.998;2022-11-20T06:54:44;13.33;;;7.70;;
15110;SDS011;7656;51.954;7.998;2022-11-20T06:59:06;9.67;;;6.80;;
15110;SDS011;7656;51.954;7.998;2022-11-20T07:03:27;10.10;;;7.20;;
15110;SDS011;7656;51.954;7.998;2022-11-20T07:07:48;8.60;;;7.03;;
15110;SDS011;7656;51.954;7.998;2022-11-20T07:12:09;11.63;;;7.27;;
15110;SDS011;7656;51.954;7.998;2022-11-20T07:16:30;12.47;;;7.77;;
15110;SDS011;7656;51.954;7.998;2022-11-20T07:20:51;13.07;;;7.50;;
15110;SDS011;7656;51.954;7.998;2022-11-20T07:25:13;9.63;;;6.17;;
15110;SDS011;7656;51.954;7.998;2022-11-20T07:29:34;10.20;;;7.53;;
15110;SDS011;7656;51.954;7.998;2022-11-20T07:33:55;17.80;;;9.00;;
15110;SDS011;7656;51.954;7.998;2022-11-20T07:38:16;13.50;;;8.20;;
15110;SDS011;7656;51.954;7.998;2022-11-20T07:42:37;10.37;;;6.90;;
15110;SDS011;7656;51.954;7.998;2022-11-20T07:46:58;13.07;;;7.90;;
15110;SDS011;7656;51.954;7.998;2022-11-20T07:51:19;12.57;;;7.47;;
15110;SDS011;7656;51.954;7.998;2022-11-20T07:55:40;11.17;;;7.20;;
15110;SDS011;7656;51.954;7.998;2022-11-20T08:00:02;10.60;;;7.37;;
15110;SDS011;7656;51.954;7.998;2022-11-20T08:04:32;11.83;;;7.60;;
15110;SDS011;7656;51.954;7.998;2022-11-20T08:08:53;11.40;;;8.63;;
15110;SDS011;7656;51.954;7.998;2022-11-20T08:13:14;14.37;;;9.73;;
15110;SDS011;7656;51.954;7.998;2022-11-20T08:18:04;13.00;;;8.97;;
15110;SDS011;7656;51.954;7.998;2022-11-20T08:22:28;12.30;;;9.47;;
15110;SDS011;7656;51.954;7.998;2022-11-20T08:26:49;11.60;;;8.93;;
15110;SDS011;7656;51.954;7.998;2022-11-20T08:31:10;12.37;;;8.97;;
15110;SDS011;7656;51.954;7.998;2022-11-20T08:35:35;12.47;;;8.43;;
15110;SDS011;7656;51.954;7.998;2022-11-20T08:39:58;12.47;;;10.07;;
15110;SDS011;7656;51.954;7.998;2022-11-20T08:44:19;16.10;;;9.40;;
15110;SDS011;7656;51.954;7.998;2022-11-20T08:48:40;13.03;;;9.63;;
15110;SDS011;7656;51.954;7.998;2022-11-20T08:53:02;12.40;;;9.10;;
15110;SDS011;7656;51.954;7.998;2022-11-20T08:57:26;14.07;;;9.07;;
15110;SDS011;7656;51.954;7.998;2022-11-20T09:01:47;13.13;;;9.50;;
15110;SDS011;7656;51.954;7.998;2022-11-20T09:06:08;12.90;;;9.30;;
15110;SDS011;7656;51.954;7.998;2022-11-20T09:10:29;13.40;;;9.43;;
15110;SDS011;7656;51.954;7.998;2022-11-20T09:14:50;13.43;;;9.37;;
15110;SDS011;7656;51.954;7.998;2022-11-20T09:19:12;14.07;;;10.27;;
15110;SDS011;7656;51.954;7.998;2022-11-20T09:23:34;15.53;;;10.83;;
15110;SDS011;7656;51.954;7.998;2022-11-20T09:27:59;15.57;;;10.50;;
15110;SDS011;7656;51.954;7.998;2022-11-20T09:32:20;13.73;;;10.60;;
15110;SDS011;7656;51.954;7.998;2022-11-20T09:36:41;13.77;;;10.00;;
15110;SDS011;7656;51.954;7.998;2022-11-20T09:41:03;16.03;;;9.77;;
15110;SDS011;7656;51.954;7.998;2022-11-20T09:55:01;12.23;;;10.03;;
15110;SDS011;7656;51.954;7.998;2022-11-20T09:59:42;12.20;;;9.40;;
15110;SDS011;7656;51.954;7.998;2022-11-20T10:04:12;12.40;;;9.10;;
15110;SDS011;7656;51.954;7.998;2022-11-20T10:08:43;14.70;;;9.73;;
15110;SDS011;7656;51.954;7.998;2022-11-20T10:13:17;14.17;;;9.90;;
15110;SDS011;7656;51.954;7.998;2022-11-20T10:32:15;13.53;;;8.53;;
15110;SDS011;7656;51.954;7.998;2022-11-20T10:36:44;12.77;;;8.83;;
15110;SDS011;7656;51.954;7.998;2022-11-20T10:41:16;12.93;;;8.53;;
15110;SDS011;7656;51.954;7.998;2022-11-20T10:50:20;14.37;;;9.40;;
15110;SDS011;7656;51.954;7.998;2022-11-20T10:54:44;11.83;;;8.93;;
15110;SDS011;7656;51.954;7.998;2022-11-20T11:04:33;14.17;;;9.17;;
15110;SDS011;7656;51.954;7.998;2022-11-20T11:09:02;13.53;;;9.50;;
15110;SDS011;7656;51.954;7.998;2022-11-20T11:13:33;12.67;;;8.70;;
15110;SDS011;7656;51.954;7.998;2022-11-20T11:17:54;14.07;;;8.97;;
15110;SDS011;7656;51.954;7.998;2022-11-20T11:22:16;13.17;;;9.13;;
15110;SDS011;7656;51.954;7.998;2022-11-20T11:26:38;13.57;;;9.00;;
15110;SDS011;7656;51.954;7.998;2022-11-20T11:31:00;16.43;;;10.13;;
15110;SDS011;7656;51.954;7.998;2022-11-20T11:35:22;16.10;;;10.17;;
15110;SDS011;7656;51.954;7.998;2022-11-20T11:39:48;12.00;;;8.53;;
15110;SDS011;7656;51.954;7.998;2022-11-20T11:44:17;11.67;;;7.10;;
15110;SDS011;7656;51.954;7.998;2022-11-20T11:53:25;12.93;;;8.43;;
15110;SDS011;7656;51.954;7.998;2022-11-20T11:57:53;14.30;;;9.20;;
15110;SDS011;7656;51.954;7.998;2022-11-20T12:02:36;13.90;;;7.83;;
15110;SDS011;7656;51.954;7.998;2022-11-20T12:07:15;14.43;;;8.13;;
15110;SDS011;7656;51.954;7.998;2022-11-20T12:12:05;10.93;;;7.10;;
15110;SDS011;7656;51.954;7.998;2022-11-20T12:16:37;12.47;;;7.63;;
15110;SDS011;7656;51.954;7.998;2022-11-20T12:25:48;12.60;;;8.57;;
15110;SDS011;7656;51.954;7.998;2022-11-20T12:30:16;13.97;;;7.77;;
15110;SDS011;7656;51.954;7.998;2022-11-20T12:35:00;11.00;;;7.57;;
15110;SDS011;7656;51.954;7.998;2022-11-20T12:39:58;14.10;;;8.67;;
15110;SDS011;7656;51.954;7.998;2022-11-20T12:49:35;11.07;;;7.67;;
15110;SDS011;7656;51.954;7.998;2022-11-20T13:04:31;9.93;;;6.10;;
15110;SDS011;7656;51.954;7.998;2022-11-20T13:08:57;7.93;;;5.77;;
15110;SDS011;7656;51.954;7.998;2022-11-20T13:18:20;8.20;;;5.97;;
15110;SDS011;7656;51.954;7.998;2022-11-20T13:31:33;8.20;;;5.37;;
15110;SDS011;7656;51.954;7.998;2022-11-20T13:35:57;6.63;;;5.23;;
15110;SDS011;7656;51.954;7.998;2022-11-20T13:40:21;7.20;;;5.30;;
15110;SDS011;7656;51.954;7.998;2022-11-20T13:45:00;7.77;;;5.27;;
15110;SDS011;7656;51.954;7.998;2022-11-20T13:49:32;6.47;;;4.70;;
15110;SDS011;7656;51.954;7.998;2022-11-20T13:54:17;7.47;;;4.80;;
15110;SDS011;7656;51.954;7.998;2022-11-20T13:59:43;7.07;;;4.63;;
15110;SDS011;7656;51.954;7.998;2022-11-20T14:04:08;8.33;;;4.73;;
15110;SDS011;7656;51.954;7.998;2022-11-20T14:09:10;8.90;;;5.83;;
15110;SDS011;7656;51.954;7.998;2022-11-20T14:13:23;10.73;;;5.90;;
15110;SDS011;7656;51.954;7.998;2022-11-20T14:17:44;11.03;;;7.40;;
15110;SDS011;7656;51.954;7.998;2022-11-20T14:22:24;11.73;;;6.90;;
15110;SDS011;7656;51.954;7.998;2022-11-20T14:26:47;13.40;;;7.80;;
15110;SDS011;7656;51.954;7.998;2022-11-20T14:31:15;10.97;;;7.60;;
15110;SDS011;7656;51.954;7.998;2022-11-20T14:35:50;13.73;;;8.57;;
15110;SDS011;7656;51.954;7.998;2022-11-20T14:44:49;13.50;;;8.17;;
15110;SDS011;7656;51.954;7.998;2022-11-20T14:49:13;17.83;;;8.73;;
15110;SDS011;7656;51.954;7.998;2022-11-20T14:53:34;16.17;;;7.87;;
15110;SDS011;7656;51.954;7.998;2022-11-20T14:57:56;15.10;;;8.07;;
15110;SDS011;7656;51.954;7.998;2022-11-20T15:02:23;15.70;;;8.40;;
15110;SDS011;7656;51.954;7.998;2022-11-20T15:06:51;13.00;;;7.87;;
15110;SDS011;7656;51.954;7.998;2022-11-20T15:11:17;14.03;;;8.37;;
15110;SDS011;7656;51.954;7.998;2022-11-20T15:15:51;14.43;;;9.30;;
15110;SDS011;7656;51.954;7.998;2022-11-20T15:20:15;19.60;;;10.50;;
15110;SDS011;7656;51.954;7.998;2022-11-20T15:24:38;16.83;;;10.00;;
15110;SDS011;7656;51.954;7.998;2022-11-20T15:28:59;20.23;;;10.17;;
15110;SDS011;7656;51.954;7.998;2022-11-20T15:33:20;17.40;;;9.83;;
15110;SDS011;7656;51.954;7.998;2022-11-20T15:37:41;18.30;;;11.57;;
15110;SDS011;7656;51.954;7.998;2022-11-20T15:42:03;14.37;;;9.83;;
15110;SDS011;7656;51.954;7.998;2022-11-20T15:46:25;17.90;;;9.97;;
15110;SDS011;7656;51.954;7.998;2022-11-20T15:51:03;15.50;;;10.13;;
15110;SDS011;7656;51.954;7.998;2022-11-20T15:55:52;14.20;;;8.57;;
15110;SDS011;7656;51.954;7.998;2022-11-20T16:00:14;17.30;;;8.80;;
15110;SDS011;7656;51.954;7.998;2022-11-20T16:04:35;18.27;;;10.03;;
15110;SDS011;7656;51.954;7.998;2022-11-20T16:08:56;15.40;;;9.37;;
15110;SDS011;7656;51.954;7.998;2022-11-20T16:13:18;14.50;;;8.83;;
15110;SDS011;7656;51.954;7.998;2022-11-20T16:17:57;16.03;;;8.93;;
15110;SDS011;7656;51.954;7.998;2022-11-20T16:22:18;15.10;;;10.17;;
15110;SDS011;7656;51.954;7.998;2022-11-20T16:26:40;17.77;;;10.10;;
15110;SDS011;7656;51.954;7.998;2022-11-20T16:31:11;14.53;;;8.37;;
15110;SDS011;7656;51.954;7.998;2022-11-20T16:35:35;14.87;;;8.77;;
15110;SDS011;7656;51.954;7.998;2022-11-20T16:39:56;18.10;;;9.30;;
15110;SDS011;7656;51.954;7.998;2022-11-20T16:44:17;18.40;;;9.90;;
15110;SDS011;7656;51.954;7.998;2022-11-20T16:48:38;15.60;;;10.13;;
15110;SDS011;7656;51.954;7.998;2022-11-20T16:52:59;16.13;;;10.47;;
15110;SDS011;7656;51.954;7.998;2022-11-20T16:57:20;16.60;;;10.83;;
15110;SDS011;7656;51.954;7.998;2022-11-20T17:01:41;17.23;;;9.97;;
15110;SDS011;7656;51.954;7.998;2022-11-20T17:06:13;16.77;;;10.37;;
15110;SDS011;7656;51.954;7.998;2022-11-20T17:10:38;15.13;;;8.83;;
15110;SDS011;7656;51.954;7.998;2022-11-20T17:14:59;13.63;;;8.27;;
15110;SDS011;7656;51.954;7.998;2022-11-20T17:19:20;16.03;;;9.23;;
15110;SDS011;7656;51.954;7.998;2022-11-20T17:23:42;14.43;;;8.00;;
15110;SDS011;7656;51.954;7.998;2022-11-20T17:28:05;16.37;;;9.43;;
15110;SDS011;7656;51.954;7.998;2022-11-20T17:32:26;12.27;;;7.63;;
15110;SDS011;7656;51.954;7.998;2022-11-20T17:36:47;17.63;;;9.27;;
15110;SDS011;7656;51.954;7.998;2022-11-20T17:41:10;21.87;;;10.07;;
15110;SDS011;7656;51.954;7.998;2022-11-20T17:45:34;17.77;;;9.73;;
15110;SDS011;7656;51.954;7.998;2022-11-20T17:49:55;17.00;;;9.03;;
15110;SDS011;7656;51.954;7.998;2022-11-20T17:54:16;14.60;;;8.43;;
15110;SDS011;7656;51.954;7.998;2022-11-20T17:58:37;12.80;;;8.23;;
15110;SDS011;7656;51.954;7.998;2022-11-20T18:02:58;10.93;;;7.47;;
15110;SDS011;7656;51.954;7.998;2022-11-20T18:07:19;14.63;;;9.10;;
15110;SDS011;7656;51.954;7.998;2022-11-20T18:11:41;13.23;;;8.57;;
15110;SDS011;7656;51.954;7.998;2022-11-20T18:16:06;13.87;;;8.47;;
15110;SDS011;7656;51.954;7.998;2022-11-20T18:20:27;14.67;;;8.60;;
15110;SDS011;7656;51.954;7.998;2022-11-20T18:24:48;15.60;;;9.50;;
15110;SDS011;7656;51.954;7.998;2022-11-20T18:29:09;19.30;;;10.63;;
15110;SDS011;7656;51.954;7.998;2022-11-20T18:33:31;16.60;;;9.07;;
15110;SDS011;7656;51.954;7.998;2022-11-20T18:37:54;13.30;;;8.87;;
15110;SDS011;7656;51.954;7.998;2022-11-20T18:42:15;15.27;;;8.83;;
15110;SDS011;7656;51.954;7.998;2022-11-20T18:46:55;15.63;;;9.23;;
15110;SDS011;7656;51.954;7.998;2022-11-20T18:51:16;13.60;;;8.83;;
15110;SDS011;7656;51.954;7.998;2022-11-20T18:55:37;15.07;;;8.70;;
15110;SDS011;7656;51.954;7.998;2022-11-20T18:59:58;14.23;;;8.73;;
15110;SDS011;7656;51.954;7.998;2022-11-20T19:04:19;10.93;;;7.17;;
15110;SDS011;7656;51.954;7.998;2022-11-20T19:08:40;10.37;;;6.57;;
15110;SDS011;7656;51.954;7.998;2022-11-20T19:13:02;9.27;;;6.23;;
15110;SDS011;7656;51.954;7.998;2022-11-20T19:17:24;11.77;;;7.23;;
15110;SDS011;7656;51.954;7.998;2022-11-20T19:21:45;12.37;;;7.40;;
15110;SDS011;7656;51.954;7.998;2022-11-20T19:26:06;11.00;;;7.10;;
15110;SDS011;7656;51.954;7.998;2022-11-20T19:30:28;11.60;;;6.90;;
15110;SDS011;7656;51.954;7.998;2022-11-20T19:34:49;10.80;;;6.57;;
15110;SDS011;7656;51.954;7.998;2022-11-20T19:39:10;14.20;;;7.43;;
15110;SDS011;7656;51.954;7.998;2022-11-20T19:43:32;12.80;;;7.67;;
15110;SDS011;7656;51.954;7.998;2022-11-20T19:47:53;9.83;;;6.30;;
15110;SDS011;7656;51.954;7.998;2022-11-20T19:52:14;10.33;;;6.63;;
15110;SDS011;7656;51.954;7.998;2022-11-20T19:56:36;9.93;;;6.30;;
15110;SDS011;7656;51.954;7.998;2022-11-20T20:00:57;9.47;;;6.07;;
15110;SDS011;7656;51.954;7.998;2022-11-20T20:05:36;10.03;;;6.20;;
15110;SDS011;7656;51.954;7.998;2022-11-20T20:09:57;12.70;;;6.83;;
15110;SDS011;7656;51.954;7.998;2022-11-20T20:14:18;5.23;;;3.07;;
15110;SDS011;7656;51.954;7.998;2022-11-20T20:18:40;10.73;;;6.13;;
15110;SDS011;7656;51.954;7.998;2022-11-20T20:23:01;8.80;;;5.93;;
15110;SDS011;7656;51.954;7.998;2022-11-20T20:27:26;10.47;;;6.20;;
15110;SDS011;7656;51.954;7.998;2022-11-20T20:31:47;9.77;;;6.17;;
15110;SDS011;7656;51.954;7.998;2022-11-20T20:36:08;9.63;;;6.07;;
15110;SDS011;7656;51.954;7.998;2022-11-20T20:40:31;9.77;;;5.60;;
15110;SDS011;7656;51.954;7.998;2022-11-20T20:44:53;8.50;;;5.90;;
15110;SDS011;7656;51.954;7.998;2022-11-20T20:49:26;16.67;;;7.00;;
15110;SDS011;7656;51.954;7.998;2022-11-20T20:53:47;10.27;;;5.73;;
15110;SDS011;7656;51.954;7.998;2022-11-20T20:58:09;7.90;;;5.47;;
15110;SDS011;7656;51.954;7.998;2022-11-20T21:02:30;7.43;;;5.43;;
15110;SDS011;7656;51.954;7.998;2022-11-20T21:06:51;9.93;;;5.97;;
15110;SDS011;7656;51.954;7.998;2022-11-20T21:11:13;8.40;;;5.77;;
15110;SDS011;7656;51.954;7.998;2022-11-20T21:15:39;9.47;;;6.10;;
15110;SDS011;7656;51.954;7.998;2022-11-20T21:20:02;8.73;;;5.30;;
15110;SDS011;7656;51.954;7.998;2022-11-20T21:24:43;8.20;;;5.87;;
15110;SDS011;7656;51.954;7.998;2022-11-20T21:29:04;11.17;;;6.20;;
15110;SDS011;7656;51.954;7.998;2022-11-20T21:33:25;9.47;;;5.73;;
15110;SDS011;7656;51.954;7.998;2022-11-20T21:37:46;8.97;;;6.30;;
15110;SDS011;7656;51.954;7.998;2022-11-20T21:42:07;10.80;;;6.80;;
15110;SDS011;7656;51.954;7.998;2022-11-20T21:46:28;10.97;;;6.60;;
15110;SDS011;7656;51.954;7.998;2022-11-20T21:50:50;9.43;;;6.47;;
15110;SDS011;7656;51.954;7.998;2022-11-20T21:55:12;8.97;;;6.23;;
15110;SDS011;7656;51.954;7.998;2022-11-20T21:59:33;10.20;;;6.57;;
15110;SDS011;7656;51.954;7.998;2022-11-20T22:03:58;8.43;;;6.70;;
15110;SDS011;7656;51.954;7.998;2022-11-20T22:08:21;11.93;;;7.07;;
15110;SDS011;7656;51.954;7.998;2022-11-20T22:12:43;9.37;;;5.63;;
15110;SDS011;7656;51.954;7.998;2022-11-20T22:17:04;9.83;;;6.23;;
15110;SDS011;7656;51.954;7.998;2022-11-20T22:21:32;8.37;;;6.30;;
15110;SDS011;7656;51.954;7.998;2022-11-20T22:25:54;12.10;;;6.00;;
15110;SDS011;7656;51.954;7.998;2022-11-20T22:30:15;9.17;;;5.40;;
15110;SDS011;7656;51.954;7.998;2022-11-20T22:34:36;9.77;;;6.27;;
15110;SDS011;7656;51.954;7.998;2022-11-20T22:38:57;11.00;;;7.13;;
15110;SDS011;7656;51.954;7.998;2022-11-20T22:43:21;9.60;;;6.57;;
15110;SDS011;7656;51.954;7.998;2022-11-20T22:47:42;9.20;;;5.97;;
15110;SDS011;7656;51.954;7.998;2022-11-20T22:52:03;10.23;;;6.53;;
15110;SDS011;7656;51.954;7.998;2022-11-20T22:56:24;10.33;;;7.13;;
15110;SDS011;7656;51.954;7.998;2022-11-20T23:00:46;12.93;;;7.33;;
15110;SDS011;7656;51.954;7.998;2022-11-20T23:05:07;10.40;;;6.83;;
15110;SDS011;7656;51.954;7.998;2022-11-20T23:09:28;10.90;;;6.87;;
15110;SDS011;7656;51.954;7.998;2022-11-20T23:13:53;14.17;;;7.80;;
15110;SDS011;7656;51.954;7.998;2022-11-20T23:18:17;11.63;;;7.73;;
15110;SDS011;7656;51.954;7.998;2022-11-20T23:22:38;11.73;;;8.13;;
15110;SDS011;7656;51.954;7.998;2022-11-20T23:26:59;11.33;;;7.23;;
15110;SDS011;7656;51.954;7.998;2022-11-20T23:31:20;10.63;;;5.90;;
15110;SDS011;7656;51.954;7.998;2022-11-20T23:35:45;11.13;;;7.37;;
15110;SDS011;7656;51.954;7.998;2022-11-20T23:40:07;12.70;;;7.97;;
15110;SDS011;7656;51.954;7.998;2022-11-20T23:44:28;12.87;;;8.03;;
15110;SDS011;7656;51.954;7.998;2022-11-20T23:48:49;11.40;;;7.07;;
15110;SDS011;7656;51.954;7.998;2022-11-20T23:53:11;15.43;;;8.30;;
15110;SDS011;7656;51.954;7.998;2022-11-20T23:57:33;13.93;;;8.67;;
